createdAt,value
2018-11-26T00:00:57.222Z,7.34
2018-11-26T00:01:57.370Z,7.29
2018-11-26T00:02:57.517Z,7.27
2018-11-26T00:03:57.663Z,7.22
2018-11-26T00:04:57.809Z,7.22
2018-11-26T00:05:57.957Z,7.19
2018-11-26T00:06:58.103Z,7.15
2018-11-26T00:07:58.255Z,7.09
2018-11-26T00:08:58.399Z,7.15
2018-11-26T00:09:58.546Z,7.12
2018-11-26T00:10:58.694Z,7.17
2018-11-26T00:11:58.838Z,7.20
2018-11-26T00:12:58.987Z,7.07
2018-11-26T00:13:59.135Z,6.99
2018-11-26T00:14:59.281Z,6.99
2018-11-26T00:15:59.428Z,7.02
2018-11-26T00:16:59.575Z,7.07
2018-11-26T00:17:59.721Z,7.04
2018-11-26T00:18:59.868Z,7.15
2018-11-26T00:20:00.055Z,7.15
2018-11-26T00:21:00.155Z,7.09
2018-11-26T00:22:00.299Z,7.07
2018-11-26T00:23:00.448Z,7.07
2018-11-26T00:24:00.589Z,7.08
2018-11-26T00:25:00.738Z,7.16
2018-11-26T00:26:00.883Z,7.16
2018-11-26T00:27:01.030Z,7.05
2018-11-26T00:28:01.176Z,7.01
2018-11-26T00:29:01.322Z,7.07
2018-11-26T00:30:01.466Z,7.07
2018-11-26T00:31:01.615Z,7.13
2018-11-26T00:32:01.761Z,7.08
2018-11-26T00:33:01.907Z,7.16
2018-11-26T00:34:02.057Z,7.20
2018-11-26T00:35:02.202Z,7.19
2018-11-26T00:36:02.346Z,7.17
2018-11-26T00:37:02.494Z,7.16
2018-11-26T00:38:02.640Z,7.22
2018-11-26T00:39:02.785Z,7.19
2018-11-26T00:40:02.932Z,7.24
2018-11-26T00:41:03.079Z,7.22
2018-11-26T00:42:03.225Z,7.13
2018-11-26T00:43:03.373Z,7.20
2018-11-26T00:44:03.519Z,7.17
2018-11-26T00:45:03.670Z,7.20
2018-11-26T00:46:03.813Z,7.16
2018-11-26T00:47:03.960Z,7.17
2018-11-26T00:48:04.105Z,7.12
2018-11-26T00:49:04.253Z,7.22
2018-11-26T00:50:04.400Z,7.19
2018-11-26T00:51:04.554Z,7.23
2018-11-26T00:52:04.694Z,7.20
2018-11-26T00:53:04.841Z,7.19
2018-11-26T00:54:04.988Z,7.24
2018-11-26T00:55:05.137Z,7.16
2018-11-26T00:56:05.280Z,7.16
2018-11-26T00:57:05.435Z,7.19
2018-11-26T00:58:05.575Z,7.26
2018-11-26T00:59:05.729Z,7.24
2018-11-26T01:00:05.870Z,7.19
2018-11-26T01:01:06.018Z,7.20
2018-11-26T01:02:06.163Z,7.23
2018-11-26T01:03:06.310Z,7.23
2018-11-26T01:04:06.456Z,7.20
2018-11-26T01:05:06.599Z,7.17
2018-11-26T01:06:06.748Z,7.17
2018-11-26T01:07:06.897Z,7.15
2018-11-26T01:08:07.041Z,7.20
2018-11-26T01:09:07.184Z,7.15
2018-11-26T01:10:07.334Z,7.19
2018-11-26T01:11:07.479Z,7.04
2018-11-26T01:12:07.627Z,7.04
2018-11-26T01:13:07.774Z,7.08
2018-11-26T01:14:07.918Z,7.07
2018-11-26T01:15:08.067Z,7.19
2018-11-26T01:16:08.216Z,7.13
2018-11-26T01:17:08.356Z,7.31
2018-11-26T01:18:08.505Z,7.23
2018-11-26T01:19:08.653Z,7.19
2018-11-26T01:20:08.797Z,7.17
2018-11-26T01:21:08.944Z,7.20
2018-11-26T01:22:09.091Z,7.15
2018-11-26T01:23:09.236Z,7.08
2018-11-26T01:24:09.382Z,7.07
2018-11-26T01:25:09.529Z,6.99
2018-11-26T01:26:09.676Z,7.01
2018-11-26T01:27:09.824Z,6.97
2018-11-26T01:28:09.971Z,7.01
2018-11-26T01:29:10.118Z,6.94
2018-11-26T01:30:10.262Z,6.91
2018-11-26T01:31:10.410Z,6.97
2018-11-26T01:32:10.557Z,7.01
2018-11-26T01:33:10.715Z,7.07
2018-11-26T01:34:10.858Z,7.08
2018-11-26T01:35:11.003Z,7.08
2018-11-26T01:36:11.149Z,7.02
2018-11-26T01:37:11.296Z,7.07
2018-11-26T01:38:11.443Z,7.09
2018-11-26T01:39:11.592Z,7.05
2018-11-26T01:40:11.736Z,6.97
2018-11-26T01:41:11.882Z,6.83
2018-11-26T01:42:12.028Z,6.89
2018-11-26T01:43:12.173Z,6.83
2018-11-26T01:44:12.320Z,6.80
2018-11-26T01:45:12.469Z,6.95
2018-11-26T01:46:12.618Z,6.84
2018-11-26T01:47:12.761Z,6.84
2018-11-26T01:48:12.905Z,6.95
2018-11-26T01:49:13.050Z,6.83
2018-11-26T01:50:13.197Z,6.81
2018-11-26T01:51:13.347Z,6.90
2018-11-26T01:52:13.489Z,6.81
2018-11-26T01:53:13.635Z,6.84
2018-11-26T01:54:13.782Z,6.94
2018-11-26T01:55:13.928Z,6.90
2018-11-26T01:56:14.074Z,6.90
2018-11-26T01:57:14.221Z,6.98
2018-11-26T01:58:14.369Z,6.95
2018-11-26T01:59:14.519Z,6.79
2018-11-26T02:00:14.664Z,6.87
2018-11-26T02:01:14.813Z,6.87
2018-11-26T02:02:14.960Z,6.83
2018-11-26T02:03:15.100Z,6.84
2018-11-26T02:04:15.248Z,6.84
2018-11-26T02:05:15.396Z,6.91
2018-11-26T02:06:15.542Z,7.01
2018-11-26T02:07:15.690Z,6.94
2018-11-26T02:08:15.837Z,6.80
2018-11-26T02:09:15.983Z,6.99
2018-11-26T02:10:16.128Z,6.84
2018-11-26T02:11:16.275Z,6.84
2018-11-26T02:12:16.422Z,6.91
2018-11-26T02:13:16.569Z,6.83
2018-11-26T02:14:16.715Z,6.84
2018-11-26T02:15:16.861Z,6.83
2018-11-26T02:16:17.009Z,6.86
2018-11-26T02:17:17.155Z,6.83
2018-11-26T02:18:17.301Z,6.81
2018-11-26T02:19:17.448Z,6.86
2018-11-26T02:20:17.596Z,6.84
2018-11-26T02:21:17.746Z,6.91
2018-11-26T02:22:17.889Z,6.81
2018-11-26T02:23:18.037Z,6.95
2018-11-26T02:24:18.183Z,6.87
2018-11-26T02:25:18.378Z,6.86
2018-11-26T02:26:18.479Z,6.81
2018-11-26T02:27:18.626Z,6.84
2018-11-26T02:28:18.769Z,6.81
2018-11-26T02:29:18.919Z,6.99
2018-11-26T02:30:19.079Z,6.99
2018-11-26T02:31:19.211Z,7.02
2018-11-26T02:32:19.359Z,7.04
2018-11-26T02:33:19.507Z,7.05
2018-11-26T02:34:19.657Z,7.07
2018-11-26T02:35:19.802Z,6.95
2018-11-26T02:36:19.954Z,6.95
2018-11-26T02:37:20.096Z,6.97
2018-11-26T02:38:20.242Z,6.98
2018-11-26T02:39:20.389Z,6.95
2018-11-26T02:40:20.537Z,6.95
2018-11-26T02:41:20.684Z,7.05
2018-11-26T02:42:20.828Z,7.02
2018-11-26T02:43:20.977Z,7.07
2018-11-26T02:44:21.127Z,7.09
2018-11-26T02:45:21.275Z,7.08
2018-11-26T02:46:21.417Z,7.08
2018-11-26T02:47:21.563Z,7.07
2018-11-26T02:48:21.712Z,7.05
2018-11-26T02:49:21.858Z,7.04
2018-11-26T02:50:22.009Z,7.05
2018-11-26T02:51:22.152Z,7.05
2018-11-26T02:52:22.298Z,7.05
2018-11-26T02:53:22.444Z,6.95
2018-11-26T02:54:22.590Z,6.91
2018-11-26T02:55:22.735Z,6.91
2018-11-26T02:56:22.882Z,6.91
2018-11-26T02:57:23.031Z,6.94
2018-11-26T02:58:23.171Z,6.91
2018-11-26T02:59:23.318Z,6.91
2018-11-26T03:00:23.465Z,6.86
2018-11-26T03:01:23.611Z,6.94
2018-11-26T03:02:23.756Z,6.94
2018-11-26T03:03:23.906Z,6.94
2018-11-26T03:04:24.052Z,6.87
2018-11-26T03:05:24.199Z,6.89
2018-11-26T03:06:24.350Z,6.81
2018-11-26T03:07:24.496Z,6.89
2018-11-26T03:08:24.643Z,6.87
2018-11-26T03:09:24.792Z,6.87
2018-11-26T03:10:24.938Z,6.83
2018-11-26T03:11:25.090Z,6.68
2018-11-26T03:12:25.229Z,6.80
2018-11-26T03:13:25.378Z,6.84
2018-11-26T03:14:25.521Z,6.95
2018-11-26T03:15:25.666Z,6.86
2018-11-26T03:16:25.814Z,6.80
2018-11-26T03:17:25.959Z,6.84
2018-11-26T03:18:26.106Z,6.87
2018-11-26T03:19:26.253Z,6.87
2018-11-26T03:20:26.399Z,6.83
2018-11-26T03:21:26.547Z,6.77
2018-11-26T03:22:26.695Z,6.89
2018-11-26T03:23:26.843Z,6.84
2018-11-26T03:24:26.993Z,6.80
2018-11-26T03:25:27.137Z,6.90
2018-11-26T03:26:27.284Z,6.90
2018-11-26T03:27:27.431Z,6.83
2018-11-26T03:28:27.585Z,6.87
2018-11-26T03:29:27.727Z,6.81
2018-11-26T03:30:27.893Z,6.90
2018-11-26T03:31:28.023Z,6.91
2018-11-26T03:32:28.173Z,6.91
2018-11-26T03:33:28.316Z,6.98
2018-11-26T03:34:28.462Z,6.98
2018-11-26T03:35:28.610Z,7.07
2018-11-26T03:36:28.763Z,7.01
2018-11-26T03:37:28.906Z,6.95
2018-11-26T03:38:29.051Z,7.08
2018-11-26T03:39:29.199Z,7.15
2018-11-26T03:40:29.352Z,7.15
2018-11-26T03:41:29.493Z,7.08
2018-11-26T03:42:29.647Z,7.08
2018-11-26T03:43:29.788Z,7.02
2018-11-26T03:44:29.932Z,6.86
2018-11-26T03:45:30.077Z,6.95
2018-11-26T03:46:30.240Z,6.91
2018-11-26T03:47:30.388Z,6.94
2018-11-26T03:48:30.537Z,6.98
2018-11-26T03:49:30.682Z,6.94
2018-11-26T03:50:30.828Z,6.87
2018-11-26T03:51:30.977Z,7.04
2018-11-26T03:52:31.123Z,7.07
2018-11-26T03:53:31.272Z,7.02
2018-11-26T03:54:31.454Z,7.07
2018-11-26T03:55:31.567Z,7.05
2018-11-26T03:56:31.725Z,7.08
2018-11-26T03:57:31.861Z,7.16
2018-11-26T03:58:32.009Z,6.99
2018-11-26T03:59:32.167Z,6.87
2018-11-26T04:00:32.301Z,6.91
2018-11-26T04:01:32.449Z,6.86
2018-11-26T04:02:32.598Z,6.81
2018-11-26T04:03:32.742Z,6.83
2018-11-26T04:04:32.890Z,6.94
2018-11-26T04:05:33.037Z,6.90
2018-11-26T04:06:33.184Z,6.86
2018-11-26T04:07:33.333Z,6.90
2018-11-26T04:08:33.485Z,6.77
2018-11-26T04:09:33.629Z,6.77
2018-11-26T04:10:33.774Z,6.72
2018-11-26T04:11:33.926Z,6.71
2018-11-26T04:12:34.073Z,6.72
2018-11-26T04:13:34.220Z,6.72
2018-11-26T04:14:34.367Z,6.76
2018-11-26T04:15:34.512Z,6.81
2018-11-26T04:16:34.660Z,6.87
2018-11-26T04:17:34.807Z,6.84
2018-11-26T04:18:34.955Z,6.87
2018-11-26T04:19:35.101Z,6.84
2018-11-26T04:20:35.251Z,6.83
2018-11-26T04:21:35.397Z,6.86
2018-11-26T04:22:35.545Z,6.84
2018-11-26T04:23:35.692Z,6.94
2018-11-26T04:24:35.840Z,6.87
2018-11-26T04:25:35.995Z,6.83
2018-11-26T04:26:36.135Z,6.87
2018-11-26T04:27:36.283Z,6.87
2018-11-26T04:28:36.429Z,6.79
2018-11-26T04:29:36.578Z,6.86
2018-11-26T04:30:36.725Z,6.84
2018-11-26T04:31:36.877Z,6.79
2018-11-26T04:32:37.018Z,6.87
2018-11-26T04:33:37.166Z,6.81
2018-11-26T04:34:37.312Z,6.94
2018-11-26T04:35:37.462Z,6.91
2018-11-26T04:36:37.608Z,6.80
2018-11-26T04:37:37.754Z,6.98
2018-11-26T04:38:37.901Z,6.81
2018-11-26T04:39:38.049Z,6.80
2018-11-26T04:40:38.197Z,6.84
2018-11-26T04:41:38.345Z,6.83
2018-11-26T04:42:38.492Z,6.80
2018-11-26T04:43:38.635Z,6.83
2018-11-26T04:44:38.783Z,6.89
2018-11-26T04:45:38.929Z,6.86
2018-11-26T04:46:39.075Z,6.81
2018-11-26T04:47:39.234Z,6.73
2018-11-26T04:48:39.373Z,6.63
2018-11-26T04:49:39.517Z,6.77
2018-11-26T04:50:39.665Z,6.68
2018-11-26T04:51:39.811Z,6.62
2018-11-26T04:52:39.961Z,6.72
2018-11-26T04:53:40.106Z,6.68
2018-11-26T04:54:40.250Z,6.65
2018-11-26T04:55:40.395Z,6.68
2018-11-26T04:56:40.543Z,6.59
2018-11-26T04:57:42.640Z,6.68
2018-11-26T04:58:40.837Z,6.68
2018-11-26T04:59:40.984Z,6.61
2018-11-26T05:00:41.133Z,6.73
2018-11-26T05:01:41.278Z,6.65
2018-11-26T05:02:41.430Z,6.61
2018-11-26T05:03:41.572Z,6.46
2018-11-26T05:04:41.720Z,6.48
2018-11-26T05:05:41.867Z,6.46
2018-11-26T05:06:42.013Z,6.47
2018-11-26T05:07:42.164Z,6.48
2018-11-26T05:08:42.307Z,6.44
2018-11-26T05:09:42.457Z,6.40
2018-11-26T05:10:42.599Z,6.36
2018-11-26T05:11:42.752Z,6.38
2018-11-26T05:12:42.895Z,6.33
2018-11-26T05:13:43.041Z,6.32
2018-11-26T05:14:43.228Z,6.40
2018-11-26T05:15:43.335Z,6.38
2018-11-26T05:16:43.480Z,6.38
2018-11-26T05:17:43.630Z,6.38
2018-11-26T05:18:43.777Z,6.38
2018-11-26T05:19:43.920Z,6.47
2018-11-26T05:20:44.069Z,6.40
2018-11-26T05:21:44.214Z,6.26
2018-11-26T05:22:44.358Z,6.19
2018-11-26T05:23:44.507Z,6.32
2018-11-26T05:24:44.655Z,6.21
2018-11-26T05:25:44.803Z,6.38
2018-11-26T05:26:44.948Z,6.29
2018-11-26T05:27:45.094Z,6.26
2018-11-26T05:28:45.242Z,6.26
2018-11-26T05:29:45.389Z,6.21
2018-11-26T05:30:45.536Z,6.33
2018-11-26T05:31:45.681Z,6.32
2018-11-26T05:32:45.831Z,6.32
2018-11-26T05:33:45.975Z,6.30
2018-11-26T05:34:46.123Z,6.29
2018-11-26T05:35:46.270Z,6.32
2018-11-26T05:36:46.415Z,6.30
2018-11-26T05:37:46.561Z,6.25
2018-11-26T05:38:46.709Z,6.29
2018-11-26T05:39:46.855Z,6.29
2018-11-26T05:40:47.002Z,6.29
2018-11-26T05:41:47.147Z,6.28
2018-11-26T05:42:47.296Z,6.22
2018-11-26T05:43:47.444Z,6.35
2018-11-26T05:44:47.592Z,6.44
2018-11-26T05:45:47.737Z,6.32
2018-11-26T05:46:47.887Z,6.32
2018-11-26T05:47:48.028Z,6.33
2018-11-26T05:48:48.175Z,6.46
2018-11-26T05:49:48.325Z,6.33
2018-11-26T05:50:48.465Z,6.29
2018-11-26T05:51:48.615Z,6.41
2018-11-26T05:52:48.761Z,6.38
2018-11-26T05:53:48.908Z,6.32
2018-11-26T05:54:49.055Z,6.26
2018-11-26T05:55:49.203Z,6.29
2018-11-26T05:56:49.350Z,6.30
2018-11-26T05:57:49.497Z,6.35
2018-11-26T05:58:49.642Z,6.36
2018-11-26T05:59:49.787Z,6.41
2018-11-26T06:00:49.934Z,6.38
2018-11-26T06:01:50.081Z,6.35
2018-11-26T06:02:50.228Z,6.36
2018-11-26T06:03:50.374Z,6.36
2018-11-26T06:04:50.524Z,6.48
2018-11-26T06:05:50.668Z,6.38
2018-11-26T06:06:50.813Z,6.47
2018-11-26T06:07:50.962Z,6.44
2018-11-26T06:08:51.109Z,6.56
2018-11-26T06:09:51.259Z,6.56
2018-11-26T06:10:51.406Z,6.51
2018-11-26T06:11:51.550Z,6.48
2018-11-26T06:12:51.702Z,6.46
2018-11-26T06:13:51.887Z,6.30
2018-11-26T06:14:51.993Z,6.32
2018-11-26T06:15:52.138Z,6.22
2018-11-26T06:16:53.771Z,6.35
2018-11-26T06:17:52.425Z,6.28
2018-11-26T06:18:52.576Z,6.26
2018-11-26T06:19:52.721Z,6.36
2018-11-26T06:20:52.867Z,6.35
2018-11-26T06:21:53.036Z,6.36
2018-11-26T06:22:53.162Z,6.36
2018-11-26T06:23:53.308Z,6.32
2018-11-26T06:24:53.455Z,6.38
2018-11-26T06:25:53.603Z,6.36
2018-11-26T06:26:53.749Z,6.36
2018-11-26T06:27:53.896Z,6.29
2018-11-26T06:28:54.042Z,6.25
2018-11-26T06:29:54.187Z,6.29
2018-11-26T06:30:54.336Z,6.21
2018-11-26T06:31:54.486Z,6.32
2018-11-26T06:32:54.628Z,6.36
2018-11-26T06:33:54.775Z,6.29
2018-11-26T06:34:54.924Z,6.28
2018-11-26T06:35:55.068Z,6.26
2018-11-26T06:36:55.213Z,6.33
2018-11-26T06:37:55.364Z,6.43
2018-11-26T06:38:55.508Z,6.33
2018-11-26T06:39:55.655Z,6.40
2018-11-26T06:40:55.802Z,6.43
2018-11-26T06:41:55.947Z,6.38
2018-11-26T06:42:56.098Z,6.38
2018-11-26T06:43:56.242Z,6.44
2018-11-26T06:44:56.391Z,6.38
2018-11-26T06:45:56.536Z,6.29
2018-11-26T06:46:56.681Z,6.26
2018-11-26T06:47:56.828Z,6.30
2018-11-26T06:48:56.973Z,6.38
2018-11-26T06:49:57.125Z,6.29
2018-11-26T06:50:57.267Z,6.32
2018-11-26T06:51:57.415Z,6.29
2018-11-26T06:52:57.562Z,6.36
2018-11-26T06:53:57.709Z,6.33
2018-11-26T06:54:57.858Z,6.47
2018-11-26T06:55:58.004Z,6.41
2018-11-26T06:56:58.150Z,6.29
2018-11-26T06:57:58.296Z,6.25
2018-11-26T06:58:58.442Z,6.29
2018-11-26T06:59:58.588Z,6.29
2018-11-26T07:00:58.735Z,6.33
2018-11-26T07:01:58.882Z,6.25
2018-11-26T07:02:59.032Z,6.28
2018-11-26T07:03:59.176Z,6.38
2018-11-26T07:04:59.322Z,6.38
2018-11-26T07:05:59.468Z,6.40
2018-11-26T07:06:59.614Z,6.33
2018-11-26T07:07:59.762Z,6.38
2018-11-26T07:08:59.910Z,6.36
2018-11-26T07:10:00.079Z,6.40
2018-11-26T07:11:00.200Z,6.32
2018-11-26T07:12:00.380Z,6.38
2018-11-26T07:13:00.527Z,6.36
2018-11-26T07:14:00.676Z,6.44
2018-11-26T07:15:00.820Z,6.40
2018-11-26T07:16:00.968Z,6.36
2018-11-26T07:17:01.119Z,6.44
2018-11-26T07:18:01.261Z,6.38
2018-11-26T07:19:01.411Z,6.48
2018-11-26T07:20:01.556Z,6.44
2018-11-26T07:21:01.711Z,6.51
2018-11-26T07:22:01.849Z,6.53
2018-11-26T07:23:01.997Z,6.56
2018-11-26T07:24:02.141Z,6.62
2018-11-26T07:25:02.290Z,6.51
2018-11-26T07:26:02.435Z,6.47
2018-11-26T07:27:02.582Z,6.44
2018-11-26T07:28:02.729Z,6.35
2018-11-26T07:29:02.877Z,6.33
2018-11-26T07:30:03.024Z,6.40
2018-11-26T07:31:03.170Z,6.44
2018-11-26T07:32:03.318Z,6.33
2018-11-26T07:33:03.463Z,6.33
2018-11-26T07:34:03.608Z,6.32
2018-11-26T07:35:03.760Z,6.41
2018-11-26T07:36:10.974Z,6.33
2018-11-26T07:37:04.050Z,6.48
2018-11-26T07:38:04.197Z,6.41
2018-11-26T07:39:04.342Z,6.48
2018-11-26T07:40:04.491Z,6.36
2018-11-26T07:41:04.637Z,6.38
2018-11-26T07:42:04.784Z,6.43
2018-11-26T07:43:04.932Z,6.33
2018-11-26T07:44:05.079Z,6.33
2018-11-26T07:45:05.227Z,6.40
2018-11-26T07:46:05.374Z,6.43
2018-11-26T07:47:05.522Z,6.38
2018-11-26T07:48:05.668Z,6.30
2018-11-26T07:49:05.812Z,6.32
2018-11-26T07:50:05.962Z,6.38
2018-11-26T07:51:06.115Z,6.40
2018-11-26T07:52:06.257Z,6.44
2018-11-26T07:53:06.404Z,6.43
2018-11-26T07:54:06.549Z,6.33
2018-11-26T07:55:06.701Z,6.35
2018-11-26T07:56:06.843Z,6.41
2018-11-26T07:57:06.991Z,6.41
2018-11-26T07:58:07.139Z,6.48
2018-11-26T07:59:07.285Z,6.38
2018-11-26T08:00:07.441Z,6.38
2018-11-26T08:01:07.581Z,6.43
2018-11-26T08:02:07.725Z,6.41
2018-11-26T08:03:07.884Z,6.44
2018-11-26T08:04:08.021Z,6.44
2018-11-26T08:05:08.166Z,6.51
2018-11-26T08:06:08.837Z,6.53
2018-11-26T08:07:08.459Z,6.50
2018-11-26T08:08:08.605Z,6.48
2018-11-26T08:09:08.752Z,6.46
2018-11-26T08:10:08.901Z,6.41
2018-11-26T08:11:09.041Z,6.54
2018-11-26T08:12:09.185Z,6.38
2018-11-26T08:13:09.332Z,6.36
2018-11-26T08:14:09.487Z,6.46
2018-11-26T08:15:09.627Z,6.40
2018-11-26T08:16:09.777Z,6.43
2018-11-26T08:17:09.921Z,6.41
2018-11-26T08:18:10.067Z,6.46
2018-11-26T08:19:10.214Z,6.48
2018-11-26T08:20:10.362Z,6.54
2018-11-26T08:21:10.516Z,6.46
2018-11-26T08:22:10.655Z,6.59
2018-11-26T08:23:10.804Z,6.56
2018-11-26T08:24:10.950Z,6.56
2018-11-26T08:25:11.096Z,6.54
2018-11-26T08:26:11.244Z,6.51
2018-11-26T08:27:11.389Z,6.59
2018-11-26T08:28:11.541Z,6.53
2018-11-26T08:29:11.685Z,6.58
2018-11-26T08:30:11.831Z,6.51
2018-11-26T08:31:11.978Z,6.59
2018-11-26T08:32:12.121Z,6.48
2018-11-26T08:33:12.267Z,6.46
2018-11-26T08:34:12.864Z,6.53
2018-11-26T08:35:12.564Z,6.46
2018-11-26T08:36:12.709Z,6.46
2018-11-26T08:37:12.857Z,6.48
2018-11-26T08:38:13.005Z,6.44
2018-11-26T08:39:13.151Z,6.38
2018-11-26T08:40:13.298Z,6.48
2018-11-26T08:41:13.447Z,6.44
2018-11-26T08:42:13.592Z,6.48
2018-11-26T08:43:13.740Z,6.53
2018-11-26T08:44:13.887Z,6.53
2018-11-26T08:45:14.033Z,6.48
2018-11-26T08:46:14.206Z,6.36
2018-11-26T08:47:14.357Z,6.38
2018-11-26T08:48:14.472Z,6.38
2018-11-26T08:49:14.622Z,6.36
2018-11-26T08:50:14.768Z,6.33
2018-11-26T08:51:14.917Z,6.44
2018-11-26T08:52:15.062Z,6.36
2018-11-26T08:53:15.207Z,6.32
2018-11-26T08:54:15.357Z,6.30
2018-11-26T08:55:15.503Z,6.40
2018-11-26T08:56:16.004Z,6.33
2018-11-26T08:57:15.795Z,6.33
2018-11-26T08:58:15.942Z,6.44
2018-11-26T08:59:16.093Z,6.38
2018-11-26T09:00:16.238Z,6.44
2018-11-26T09:01:16.385Z,6.30
2018-11-26T09:02:16.532Z,6.46
2018-11-26T09:03:16.680Z,6.44
2018-11-26T09:04:16.825Z,6.54
2018-11-26T09:05:23.758Z,6.61
2018-11-26T09:06:17.118Z,6.51
2018-11-26T09:07:17.268Z,6.56
2018-11-26T09:08:17.416Z,6.43
2018-11-26T09:09:17.560Z,6.41
2018-11-26T09:10:17.705Z,6.32
2018-11-26T09:11:17.853Z,6.29
2018-11-26T09:12:18.002Z,6.22
2018-11-26T09:13:18.148Z,6.21
2018-11-26T09:14:18.297Z,6.21
2018-11-26T09:15:18.442Z,6.29
2018-11-26T09:16:18.589Z,6.30
2018-11-26T09:17:18.736Z,6.16
2018-11-26T09:18:18.882Z,6.09
2018-11-26T09:19:19.027Z,6.09
2018-11-26T09:20:19.175Z,6.04
2018-11-26T09:21:19.321Z,6.10
2018-11-26T09:22:19.469Z,6.13
2018-11-26T09:23:19.614Z,6.18
2018-11-26T09:24:19.761Z,6.28
2018-11-26T09:25:19.915Z,6.35
2018-11-26T09:26:20.061Z,6.29
2018-11-26T09:27:20.207Z,6.26
2018-11-26T09:28:20.361Z,6.18
2018-11-26T09:29:20.507Z,6.09
2018-11-26T09:30:20.640Z,6.18
2018-11-26T09:31:20.788Z,6.18
2018-11-26T09:32:20.932Z,6.13
2018-11-26T09:33:21.078Z,6.13
2018-11-26T09:34:21.225Z,6.04
2018-11-26T09:35:21.376Z,6.01
2018-11-26T09:36:21.518Z,6.04
2018-11-26T09:37:21.665Z,6.11
2018-11-26T09:38:21.819Z,6.14
2018-11-26T09:39:21.957Z,6.11
2018-11-26T09:40:22.102Z,6.21
2018-11-26T09:41:22.248Z,6.21
2018-11-26T09:42:22.398Z,6.26
2018-11-26T09:43:22.544Z,6.28
2018-11-26T09:44:22.687Z,6.25
2018-11-26T09:45:22.833Z,6.03
2018-11-26T09:46:22.979Z,6.10
2018-11-26T09:47:23.131Z,6.07
2018-11-26T09:48:23.275Z,6.16
2018-11-26T09:49:23.421Z,6.19
2018-11-26T09:50:23.568Z,6.22
2018-11-26T09:51:23.713Z,6.16
2018-11-26T09:52:23.862Z,6.10
2018-11-26T09:53:24.010Z,6.11
2018-11-26T09:54:26.012Z,6.09
2018-11-26T09:55:24.308Z,6.14
2018-11-26T09:56:24.450Z,6.06
2018-11-26T09:57:24.597Z,6.00
2018-11-26T09:58:24.745Z,6.06
2018-11-26T09:59:24.891Z,6.14
2018-11-26T10:00:25.042Z,6.22
2018-11-26T10:01:25.192Z,6.07
2018-11-26T10:02:25.334Z,6.06
2018-11-26T10:03:25.483Z,6.06
2018-11-26T10:04:25.628Z,6.07
2018-11-26T10:05:25.777Z,6.11
2018-11-26T10:06:25.922Z,6.09
2018-11-26T10:07:26.069Z,6.06
2018-11-26T10:08:26.219Z,6.03
2018-11-26T10:09:26.361Z,6.09
2018-11-26T10:10:26.509Z,6.03
2018-11-26T10:11:26.659Z,5.98
2018-11-26T10:12:26.801Z,6.06
2018-11-26T10:13:26.949Z,6.04
2018-11-26T10:14:27.344Z,6.06
2018-11-26T10:15:27.254Z,5.98
2018-11-26T10:16:27.392Z,6.04
2018-11-26T10:17:27.537Z,6.06
2018-11-26T10:18:27.687Z,6.04
2018-11-26T10:19:28.584Z,6.09
2018-11-26T10:20:27.976Z,6.13
2018-11-26T10:21:28.124Z,6.11
2018-11-26T10:22:28.270Z,6.22
2018-11-26T10:23:28.421Z,6.28
2018-11-26T10:24:28.563Z,6.26
2018-11-26T10:25:28.711Z,6.21
2018-11-26T10:26:28.857Z,6.29
2018-11-26T10:27:29.005Z,6.22
2018-11-26T10:28:29.152Z,6.25
2018-11-26T10:29:29.297Z,6.25
2018-11-26T10:30:29.444Z,6.22
2018-11-26T10:31:29.588Z,6.32
2018-11-26T10:32:29.737Z,6.28
2018-11-26T10:33:29.885Z,6.41
2018-11-26T10:34:30.036Z,6.29
2018-11-26T10:35:30.181Z,6.29
2018-11-26T10:36:30.327Z,6.18
2018-11-26T10:37:30.502Z,6.25
2018-11-26T10:38:30.649Z,6.25
2018-11-26T10:39:30.798Z,6.30
2018-11-26T10:40:30.940Z,6.36
2018-11-26T10:41:31.085Z,6.40
2018-11-26T10:42:31.233Z,6.38
2018-11-26T10:43:31.377Z,6.43
2018-11-26T10:44:31.526Z,6.44
2018-11-26T10:45:31.672Z,6.43
2018-11-26T10:46:31.820Z,6.40
2018-11-26T10:47:31.969Z,6.46
2018-11-26T10:48:32.134Z,6.48
2018-11-26T10:49:32.257Z,6.36
2018-11-26T10:50:32.430Z,6.36
2018-11-26T10:51:32.553Z,6.40
2018-11-26T10:52:32.699Z,6.48
2018-11-26T10:53:32.847Z,6.51
2018-11-26T10:54:32.994Z,6.54
2018-11-26T10:55:33.138Z,6.50
2018-11-26T10:56:33.287Z,6.47
2018-11-26T10:57:33.435Z,6.38
2018-11-26T10:58:33.585Z,6.40
2018-11-26T10:59:33.726Z,6.33
2018-11-26T11:00:33.875Z,6.35
2018-11-26T11:01:34.020Z,6.41
2018-11-26T11:02:34.363Z,6.47
2018-11-26T11:03:34.318Z,6.29
2018-11-26T11:04:34.465Z,6.36
2018-11-26T11:05:34.611Z,6.38
2018-11-26T11:06:34.757Z,6.40
2018-11-26T11:07:34.902Z,6.29
2018-11-26T11:08:35.047Z,6.16
2018-11-26T11:09:35.204Z,6.06
2018-11-26T11:10:35.339Z,6.03
2018-11-26T11:11:35.486Z,6.18
2018-11-26T11:12:35.631Z,6.09
2018-11-26T11:13:35.779Z,6.26
2018-11-26T11:14:35.926Z,6.22
2018-11-26T11:15:36.073Z,6.30
2018-11-26T11:16:36.218Z,6.41
2018-11-26T11:17:36.363Z,6.35
2018-11-26T11:18:36.513Z,6.29
2018-11-26T11:19:36.658Z,6.28
2018-11-26T11:20:36.805Z,6.32
2018-11-26T11:21:36.950Z,6.29
2018-11-26T11:22:37.097Z,6.28
2018-11-26T11:23:37.245Z,6.28
2018-11-26T11:24:37.391Z,6.32
2018-11-26T11:25:37.538Z,6.13
2018-11-26T11:26:37.689Z,6.26
2018-11-26T11:27:37.833Z,6.28
2018-11-26T11:28:37.979Z,6.29
2018-11-26T11:29:38.127Z,6.25
2018-11-26T11:30:38.274Z,6.32
2018-11-26T11:31:38.421Z,6.38
2018-11-26T11:32:38.571Z,6.43
2018-11-26T11:33:38.716Z,6.25
2018-11-26T11:34:38.862Z,6.28
2018-11-26T11:35:39.011Z,6.18
2018-11-26T11:36:39.158Z,6.28
2018-11-26T11:37:39.303Z,6.28
2018-11-26T11:38:39.455Z,6.32
2018-11-26T11:39:39.597Z,6.28
2018-11-26T11:40:39.746Z,6.28
2018-11-26T11:41:39.893Z,6.38
2018-11-26T11:42:40.040Z,6.43
2018-11-26T11:43:40.186Z,6.44
2018-11-26T11:44:40.331Z,6.43
2018-11-26T11:45:40.479Z,6.43
2018-11-26T11:46:40.622Z,6.51
2018-11-26T11:47:40.767Z,6.54
2018-11-26T11:48:40.916Z,6.35
2018-11-26T11:49:41.063Z,6.32
2018-11-26T11:50:41.213Z,6.40
2018-11-26T11:51:41.357Z,6.40
2018-11-26T11:52:41.505Z,6.33
2018-11-26T11:53:41.652Z,6.33
2018-11-26T11:54:41.799Z,6.30
2018-11-26T11:55:41.947Z,6.22
2018-11-26T11:56:42.091Z,6.03
2018-11-26T11:57:42.239Z,6.04
2018-11-26T11:58:42.385Z,6.01
2018-11-26T11:59:42.532Z,5.98
2018-11-26T12:00:42.678Z,5.98
2018-11-26T12:01:42.824Z,6.00
2018-11-26T12:02:42.972Z,5.98
2018-11-26T12:03:43.121Z,5.95
2018-11-26T12:04:43.267Z,6.10
2018-11-26T12:05:43.417Z,6.07
2018-11-26T12:06:43.564Z,6.03
2018-11-26T12:07:43.706Z,6.00
2018-11-26T12:08:43.852Z,6.09
2018-11-26T12:09:43.999Z,6.13
2018-11-26T12:10:44.148Z,6.11
2018-11-26T12:11:44.294Z,6.14
2018-11-26T12:12:44.439Z,6.03
2018-11-26T12:13:44.584Z,6.09
2018-11-26T12:14:44.732Z,6.06
2018-11-26T12:15:44.879Z,6.07
2018-11-26T12:16:45.024Z,6.13
2018-11-26T12:17:45.176Z,6.07
2018-11-26T12:18:45.317Z,6.21
2018-11-26T12:19:45.467Z,6.21
2018-11-26T12:20:45.609Z,5.95
2018-11-26T12:21:45.758Z,5.83
2018-11-26T12:22:45.905Z,5.86
2018-11-26T12:23:46.053Z,5.91
2018-11-26T12:24:46.198Z,5.93
2018-11-26T12:25:46.377Z,5.95
2018-11-26T12:26:46.491Z,6.03
2018-11-26T12:27:46.639Z,6.13
2018-11-26T12:28:46.786Z,6.11
2018-11-26T12:29:46.932Z,6.01
2018-11-26T12:30:47.078Z,6.00
2018-11-26T12:31:47.225Z,6.01
2018-11-26T12:32:47.372Z,6.09
2018-11-26T12:33:47.521Z,5.96
2018-11-26T12:34:47.667Z,5.95
2018-11-26T12:35:47.815Z,6.00
2018-11-26T12:36:47.960Z,6.03
2018-11-26T12:37:48.107Z,6.06
2018-11-26T12:38:48.255Z,6.07
2018-11-26T12:39:48.401Z,5.95
2018-11-26T12:40:48.548Z,6.00
2018-11-26T12:41:48.696Z,6.06
2018-11-26T12:42:48.845Z,6.01
2018-11-26T12:43:48.990Z,6.06
2018-11-26T12:44:49.142Z,6.06
2018-11-26T12:45:49.285Z,6.01
2018-11-26T12:46:49.436Z,5.96
2018-11-26T12:47:49.583Z,5.86
2018-11-26T12:48:49.729Z,5.95
2018-11-26T12:49:49.894Z,5.89
2018-11-26T12:50:50.025Z,5.82
2018-11-26T12:51:50.179Z,5.86
2018-11-26T12:52:50.315Z,5.81
2018-11-26T12:53:50.464Z,5.85
2018-11-26T12:54:50.610Z,5.82
2018-11-26T12:55:50.757Z,5.75
2018-11-26T12:56:50.906Z,5.86
2018-11-26T12:57:51.054Z,5.95
2018-11-26T12:58:51.200Z,5.96
2018-11-26T12:59:51.346Z,6.04
2018-11-26T13:00:51.498Z,6.01
2018-11-26T13:01:51.640Z,5.96
2018-11-26T13:02:51.787Z,6.01
2018-11-26T13:03:51.933Z,6.06
2018-11-26T13:04:52.079Z,5.92
2018-11-26T13:05:52.227Z,5.96
2018-11-26T13:06:52.373Z,6.00
2018-11-26T13:07:52.520Z,6.03
2018-11-26T13:08:52.669Z,6.01
2018-11-26T13:09:52.815Z,5.96
2018-11-26T13:10:52.961Z,6.01
2018-11-26T13:11:53.105Z,6.01
2018-11-26T13:12:53.253Z,5.98
2018-11-26T13:13:53.400Z,6.01
2018-11-26T13:14:53.546Z,6.01
2018-11-26T13:15:53.695Z,5.92
2018-11-26T13:16:53.840Z,5.88
2018-11-26T13:17:53.988Z,5.89
2018-11-26T13:18:54.137Z,5.83
2018-11-26T13:19:54.285Z,5.83
2018-11-26T13:20:54.431Z,5.85